Airfield :
LOGIN :

Register | Disclaimer

   EN    FR    IT 

 










Legend :    VFR   Marginal VFR   IFR   Intensive IFR   Very Intensive IFR
Visi :
Ceiling :
>= 8 km
>= 3000ft
5 to 8 km
1000 to 3000 ft
1500m to 5 km
500 to 1000 ft
800 to 1500m
200 to 500 ft
< 800m
< 200 ft
Symbols :   Thunderstorms  Fog  Heavy snow  Heavy precipitations  Wind > 20 kt
SIGMETs :     Misc.  Thunderstorms  Icing  Turbulence  Mountain Waves  Volcanic Ashes







- Airport Elevation : 404 ft
- IATA code : WRO


EPWR - Wroclaw

CURRENT METAR :
  • 140400Z 18015KT 150V210 9999 SCT033 04/M02 Q0994

EXPIRED METARs :
  • 140330Z 17018KT 9999 -RA FEW011 03/M03 Q0994
  • 140300Z 18016KT CAVOK 03/M03 Q0994
  • 140230Z 17013KT CAVOK 03/M03 Q0995
  • 140200Z 15011KT 9999 FEW032 02/M03 Q0996
  • 140130Z 17011KT CAVOK 02/M03 Q0996

TAF TAF EPWR
Valid from the 14 at 00:00 until the 15 at 00:00 UTC


132330Z 1400/1424 18012KT CAVOK
TEMPO 1400/1407 18015G25KT
PROB40
TEMPO 1402/1407 18018G35KT 4000 RA RASN BKN014
BECMG 1407/1409 24015G25KT
PROB40
TEMPO 1407/1416 24018G35KT 4000 SHRA SHGS BKN020CB
No reported NOTAMs for that airfield.



MET'MAP, your aeronautical weather chart ! - Copyright ORBIFLY December 2007 - Disclaimer

ORBIFLY MET'MAP TEAM :

Programming & Development : Alexandra Zaïnal
Concept & Development : Baudouin d'Aumeries
Co-Development & Prog : Marc-Olivier Méhu
Technical & hardware support : Manuel Goepfert

Contact : metmap@orbifly.com




SOURCES & CREDITS :

   NOAA